sensor_id;sensor_type;location;lat;lon;timestamp;temperature;humidity
12761;DHT22;6444;49.742;6.114;2022-09-09T00:01:08;15.60;99.90
12761;DHT22;6444;49.742;6.114;2022-09-09T00:03:40;15.50;99.90
12761;DHT22;6444;49.742;6.114;2022-09-09T00:08:50;15.70;99.90
12761;DHT22;6444;49.742;6.114;2022-09-09T00:11:12;16.20;99.90
12761;DHT22;6444;49.742;6.114;2022-09-09T00:13:52;16.20;99.90
12761;DHT22;6444;49.742;6.114;2022-09-09T00:16:19;16.00;99.90
12761;DHT22;6444;49.742;6.114;2022-09-09T00:18:50;15.60;99.90
12761;DHT22;6444;49.742;6.114;2022-09-09T00:21:14;15.90;99.90
12761;DHT22;6444;49.742;6.114;2022-09-09T00:23:40;16.20;99.90
12761;DHT22;6444;49.742;6.114;2022-09-09T00:26:35;16.70;99.90
12761;DHT22;6444;49.742;6.114;2022-09-09T00:29:14;17.30;99.90
12761;DHT22;6444;49.742;6.114;2022-09-09T00:31:37;16.70;99.90
12761;DHT22;6444;49.742;6.114;2022-09-09T00:34:19;16.60;99.90
12761;DHT22;6444;49.742;6.114;2022-09-09T00:36:45;16.20;99.90
12761;DHT22;6444;49.742;6.114;2022-09-09T00:39:25;16.20;99.90
12761;DHT22;6444;49.742;6.114;2022-09-09T00:44:33;16.30;99.90
12761;DHT22;6444;49.742;6.114;2022-09-09T00:52:43;16.70;99.90
12761;DHT22;6444;49.742;6.114;2022-09-09T00:57:37;17.40;99.90
12761;DHT22;6444;49.742;6.114;2022-09-09T01:03:19;17.00;99.90
12761;DHT22;6444;49.742;6.114;2022-09-09T01:11:15;15.70;99.90
12761;DHT22;6444;49.742;6.114;2022-09-09T01:13:35;15.60;99.90
12761;DHT22;6444;49.742;6.114;2022-09-09T01:16:03;15.90;99.90
12761;DHT22;6444;49.742;6.114;2022-09-09T01:18:32;15.80;99.90
12761;DHT22;6444;49.742;6.114;2022-09-09T01:23:48;16.80;99.90
12761;DHT22;6444;49.742;6.114;2022-09-09T01:26:25;16.70;99.90
12761;DHT22;6444;49.742;6.114;2022-09-09T01:28:50;16.90;99.90
12761;DHT22;6444;49.742;6.114;2022-09-09T01:31:20;16.80;99.90
12761;DHT22;6444;49.742;6.114;2022-09-09T01:33:46;16.80;99.90
12761;DHT22;6444;49.742;6.114;2022-09-09T01:36:15;16.80;99.90
12761;DHT22;6444;49.742;6.114;2022-09-09T01:38:39;16.90;99.90
12761;DHT22;6444;49.742;6.114;2022-09-09T01:41:06;16.80;99.90
12761;DHT22;6444;49.742;6.114;2022-09-09T01:43:33;16.80;99.90
12761;DHT22;6444;49.742;6.114;2022-09-09T01:46:00;16.80;99.90
12761;DHT22;6444;49.742;6.114;2022-09-09T01:48:26;17.00;99.90
12761;DHT22;6444;49.742;6.114;2022-09-09T01:50:53;16.50;99.90
12761;DHT22;6444;49.742;6.114;2022-09-09T01:53:20;16.30;99.90
12761;DHT22;6444;49.742;6.114;2022-09-09T01:58:47;16.20;99.90
12761;DHT22;6444;49.742;6.114;2022-09-09T02:03:58;16.20;99.90
12761;DHT22;6444;49.742;6.114;2022-09-09T02:08:59;16.00;99.90
12761;DHT22;6444;49.742;6.114;2022-09-09T02:11:25;16.00;99.90
12761;DHT22;6444;49.742;6.114;2022-09-09T02:13:52;15.70;99.90
12761;DHT22;6444;49.742;6.114;2022-09-09T02:16:21;15.80;99.90
12761;DHT22;6444;49.742;6.114;2022-09-09T02:21:37;16.30;99.90
12761;DHT22;6444;49.742;6.114;2022-09-09T02:24:04;16.00;99.90
12761;DHT22;6444;49.742;6.114;2022-09-09T02:26:31;16.00;99.90
12761;DHT22;6444;49.742;6.114;2022-09-09T02:28:57;16.40;99.90
12761;DHT22;6444;49.742;6.114;2022-09-09T02:31:24;16.50;99.90
12761;DHT22;6444;49.742;6.114;2022-09-09T02:33:57;16.70;99.90
12761;DHT22;6444;49.742;6.114;2022-09-09T02:36:19;17.20;99.90
12761;DHT22;6444;49.742;6.114;2022-09-09T02:38:46;17.10;99.90
12761;DHT22;6444;49.742;6.114;2022-09-09T02:41:12;17.20;99.90
12761;DHT22;6444;49.742;6.114;2022-09-09T02:43:39;17.30;99.90
12761;DHT22;6444;49.742;6.114;2022-09-09T02:46:21;17.00;99.90
12761;DHT22;6444;49.742;6.114;2022-09-09T02:48:48;16.70;99.90
12761;DHT22;6444;49.742;6.114;2022-09-09T02:51:10;16.60;99.90
12761;DHT22;6444;49.742;6.114;2022-09-09T02:53:49;16.50;99.90
12761;DHT22;6444;49.742;6.114;2022-09-09T02:56:16;16.40;99.90
12761;DHT22;6444;49.742;6.114;2022-09-09T02:58:41;16.40;99.90
12761;DHT22;6444;49.742;6.114;2022-09-09T03:01:08;16.30;99.90
12761;DHT22;6444;49.742;6.114;2022-09-09T03:03:35;16.50;99.90
12761;DHT22;6444;49.742;6.114;2022-09-09T03:06:01;17.00;99.90
12761;DHT22;6444;49.742;6.114;2022-09-09T03:08:28;16.80;99.90
12761;DHT22;6444;49.742;6.114;2022-09-09T03:10:55;16.50;99.90
12761;DHT22;6444;49.742;6.114;2022-09-09T03:13:21;16.30;99.90
12761;DHT22;6444;49.742;6.114;2022-09-09T03:15:48;16.80;99.90
12761;DHT22;6444;49.742;6.114;2022-09-09T03:18:15;16.90;99.90
12761;DHT22;6444;49.742;6.114;2022-09-09T03:20:41;16.80;99.90
12761;DHT22;6444;49.742;6.114;2022-09-09T03:23:08;16.70;99.90
12761;DHT22;6444;49.742;6.114;2022-09-09T03:25:34;16.70;99.90
12761;DHT22;6444;49.742;6.114;2022-09-09T03:28:01;17.00;99.90
12761;DHT22;6444;49.742;6.114;2022-09-09T03:30:28;16.60;99.90
12761;DHT22;6444;49.742;6.114;2022-09-09T03:32:54;16.70;99.90
12761;DHT22;6444;49.742;6.114;2022-09-09T03:35:23;17.20;99.90
12761;DHT22;6444;49.742;6.114;2022-09-09T03:37:50;16.90;99.90
12761;DHT22;6444;49.742;6.114;2022-09-09T03:40:17;16.50;99.90
12761;DHT22;6444;49.742;6.114;2022-09-09T03:42:43;16.40;99.90
12761;DHT22;6444;49.742;6.114;2022-09-09T03:45:10;16.40;99.90
12761;DHT22;6444;49.742;6.114;2022-09-09T03:47:37;16.30;99.90
12761;DHT22;6444;49.742;6.114;2022-09-09T03:50:04;16.30;99.90
12761;DHT22;6444;49.742;6.114;2022-09-09T03:52:31;16.30;99.90
12761;DHT22;6444;49.742;6.114;2022-09-09T03:54:57;16.60;99.90
12761;DHT22;6444;49.742;6.114;2022-09-09T03:57:24;16.70;99.90
12761;DHT22;6444;49.742;6.114;2022-09-09T03:59:50;16.70;99.90
12761;DHT22;6444;49.742;6.114;2022-09-09T04:02:17;16.60;99.90
12761;DHT22;6444;49.742;6.114;2022-09-09T04:04:44;16.20;99.90
12761;DHT22;6444;49.742;6.114;2022-09-09T04:07:10;16.00;99.90
12761;DHT22;6444;49.742;6.114;2022-09-09T04:09:38;16.30;99.90
12761;DHT22;6444;49.742;6.114;2022-09-09T04:12:04;16.30;99.90
12761;DHT22;6444;49.742;6.114;2022-09-09T04:14:31;16.30;99.90
12761;DHT22;6444;49.742;6.114;2022-09-09T04:16:58;16.20;99.90
12761;DHT22;6444;49.742;6.114;2022-09-09T04:19:25;16.10;99.90
12761;DHT22;6444;49.742;6.114;2022-09-09T04:21:52;16.10;99.90
12761;DHT22;6444;49.742;6.114;2022-09-09T04:24:18;16.20;99.90
12761;DHT22;6444;49.742;6.114;2022-09-09T04:26:45;16.10;99.90
12761;DHT22;6444;49.742;6.114;2022-09-09T04:29:11;15.80;99.90
12761;DHT22;6444;49.742;6.114;2022-09-09T04:31:38;15.90;99.90
12761;DHT22;6444;49.742;6.114;2022-09-09T04:34:05;16.40;99.90
12761;DHT22;6444;49.742;6.114;2022-09-09T04:36:32;16.50;99.90
12761;DHT22;6444;49.742;6.114;2022-09-09T04:38:58;16.80;99.90
12761;DHT22;6444;49.742;6.114;2022-09-09T04:41:25;16.90;99.90
12761;DHT22;6444;49.742;6.114;2022-09-09T04:43:51;17.20;99.90
12761;DHT22;6444;49.742;6.114;2022-09-09T04:46:18;16.80;99.90
12761;DHT22;6444;49.742;6.114;2022-09-09T04:48:45;17.10;99.90
12761;DHT22;6444;49.742;6.114;2022-09-09T04:51:13;17.00;99.90
12761;DHT22;6444;49.742;6.114;2022-09-09T04:53:39;17.60;99.90
12761;DHT22;6444;49.742;6.114;2022-09-09T04:56:09;17.10;99.90
12761;DHT22;6444;49.742;6.114;2022-09-09T04:58:34;17.10;99.90
12761;DHT22;6444;49.742;6.114;2022-09-09T05:01:04;17.10;99.90
12761;DHT22;6444;49.742;6.114;2022-09-09T05:03:30;16.90;99.90
12761;DHT22;6444;49.742;6.114;2022-09-09T05:06:07;17.10;99.90
12761;DHT22;6444;49.742;6.114;2022-09-09T05:08:33;17.00;99.90
12761;DHT22;6444;49.742;6.114;2022-09-09T05:11:00;16.70;99.90
12761;DHT22;6444;49.742;6.114;2022-09-09T05:13:27;16.60;99.90
12761;DHT22;6444;49.742;6.114;2022-09-09T05:15:53;16.90;99.90
12761;DHT22;6444;49.742;6.114;2022-09-09T05:18:21;17.60;99.90
12761;DHT22;6444;49.742;6.114;2022-09-09T05:20:47;17.50;99.90
12761;DHT22;6444;49.742;6.114;2022-09-09T05:23:14;17.50;99.90
12761;DHT22;6444;49.742;6.114;2022-09-09T05:25:40;17.20;99.90
12761;DHT22;6444;49.742;6.114;2022-09-09T05:28:07;17.00;99.90
12761;DHT22;6444;49.742;6.114;2022-09-09T05:30:33;16.80;99.90
12761;DHT22;6444;49.742;6.114;2022-09-09T05:33:00;17.10;99.90
12761;DHT22;6444;49.742;6.114;2022-09-09T05:35:27;16.90;99.90
12761;DHT22;6444;49.742;6.114;2022-09-09T05:37:53;16.60;99.90
12761;DHT22;6444;49.742;6.114;2022-09-09T05:40:20;16.50;99.90
12761;DHT22;6444;49.742;6.114;2022-09-09T05:42:47;17.10;99.90
12761;DHT22;6444;49.742;6.114;2022-09-09T05:45:13;17.10;99.90
12761;DHT22;6444;49.742;6.114;2022-09-09T05:47:41;16.90;99.90
12761;DHT22;6444;49.742;6.114;2022-09-09T05:50:07;16.90;99.90
12761;DHT22;6444;49.742;6.114;2022-09-09T05:52:34;16.90;99.90
12761;DHT22;6444;49.742;6.114;2022-09-09T05:55:01;16.80;99.90
12761;DHT22;6444;49.742;6.114;2022-09-09T05:57:27;16.80;99.90
12761;DHT22;6444;49.742;6.114;2022-09-09T05:59:55;16.80;99.90
12761;DHT22;6444;49.742;6.114;2022-09-09T06:02:21;16.70;99.90
12761;DHT22;6444;49.742;6.114;2022-09-09T06:04:48;16.50;99.90
12761;DHT22;6444;49.742;6.114;2022-09-09T06:07:15;16.70;99.90
12761;DHT22;6444;49.742;6.114;2022-09-09T06:09:41;16.70;99.90
12761;DHT22;6444;49.742;6.114;2022-09-09T06:12:08;16.60;99.90
12761;DHT22;6444;49.742;6.114;2022-09-09T06:14:34;16.30;99.90
12761;DHT22;6444;49.742;6.114;2022-09-09T06:17:01;16.60;99.90
12761;DHT22;6444;49.742;6.114;2022-09-09T06:19:28;17.00;99.90
12761;DHT22;6444;49.742;6.114;2022-09-09T06:21:54;16.90;99.90
12761;DHT22;6444;49.742;6.114;2022-09-09T06:24:21;17.10;99.90
12761;DHT22;6444;49.742;6.114;2022-09-09T06:26:47;17.50;99.90
12761;DHT22;6444;49.742;6.114;2022-09-09T06:29:14;17.50;99.90
12761;DHT22;6444;49.742;6.114;2022-09-09T06:31:41;17.60;99.90
12761;DHT22;6444;49.742;6.114;2022-09-09T06:34:08;17.50;99.90
12761;DHT22;6444;49.742;6.114;2022-09-09T06:36:36;17.50;99.90
12761;DHT22;6444;49.742;6.114;2022-09-09T06:39:01;17.20;99.90
12761;DHT22;6444;49.742;6.114;2022-09-09T06:41:29;17.20;99.90
12761;DHT22;6444;49.742;6.114;2022-09-09T06:43:55;17.40;99.90
12761;DHT22;6444;49.742;6.114;2022-09-09T06:46:26;17.40;99.90
12761;DHT22;6444;49.742;6.114;2022-09-09T06:48:51;17.40;99.90
12761;DHT22;6444;49.742;6.114;2022-09-09T06:51:19;17.50;99.90
12761;DHT22;6444;49.742;6.114;2022-09-09T06:53:45;17.50;99.90
12761;DHT22;6444;49.742;6.114;2022-09-09T06:58:41;17.10;99.90
12761;DHT22;6444;49.742;6.114;2022-09-09T07:01:14;17.10;99.90
12761;DHT22;6444;49.742;6.114;2022-09-09T07:03:40;17.20;99.90
12761;DHT22;6444;49.742;6.114;2022-09-09T07:06:08;17.10;99.90
12761;DHT22;6444;49.742;6.114;2022-09-09T07:08:34;17.10;99.90
12761;DHT22;6444;49.742;6.114;2022-09-09T07:11:04;17.20;99.90
12761;DHT22;6444;49.742;6.114;2022-09-09T07:13:30;17.60;99.90
12761;DHT22;6444;49.742;6.114;2022-09-09T07:16:09;17.90;99.90
12761;DHT22;6444;49.742;6.114;2022-09-09T07:18:35;17.60;99.90
12761;DHT22;6444;49.742;6.114;2022-09-09T07:21:02;17.10;99.90
12761;DHT22;6444;49.742;6.114;2022-09-09T07:23:28;17.30;99.90
12761;DHT22;6444;49.742;6.114;2022-09-09T07:25:55;17.50;99.90
12761;DHT22;6444;49.742;6.114;2022-09-09T07:28:22;17.90;99.90
12761;DHT22;6444;49.742;6.114;2022-09-09T07:31:01;17.70;99.90
12761;DHT22;6444;49.742;6.114;2022-09-09T07:33:24;17.50;99.90
12761;DHT22;6444;49.742;6.114;2022-09-09T07:35:51;17.30;99.90
12761;DHT22;6444;49.742;6.114;2022-09-09T07:38:17;17.30;99.90
12761;DHT22;6444;49.742;6.114;2022-09-09T07:40:44;17.70;99.90
12761;DHT22;6444;49.742;6.114;2022-09-09T07:43:10;17.60;99.90
12761;DHT22;6444;49.742;6.114;2022-09-09T07:45:37;17.90;99.90
12761;DHT22;6444;49.742;6.114;2022-09-09T07:48:03;18.00;99.90
12761;DHT22;6444;49.742;6.114;2022-09-09T07:50:31;19.40;99.90
12761;DHT22;6444;49.742;6.114;2022-09-09T07:52:57;19.40;99.90
12761;DHT22;6444;49.742;6.114;2022-09-09T07:55:24;18.80;99.90
12761;DHT22;6444;49.742;6.114;2022-09-09T07:57:55;18.00;99.90
12761;DHT22;6444;49.742;6.114;2022-09-09T08:00:18;18.00;99.90
12761;DHT22;6444;49.742;6.114;2022-09-09T08:02:45;17.90;99.90
12761;DHT22;6444;49.742;6.114;2022-09-09T08:05:11;17.70;99.90
12761;DHT22;6444;49.742;6.114;2022-09-09T08:07:38;17.60;99.90
12761;DHT22;6444;49.742;6.114;2022-09-09T08:10:05;17.70;99.90
12761;DHT22;6444;49.742;6.114;2022-09-09T08:12:32;17.70;99.90
12761;DHT22;6444;49.742;6.114;2022-09-09T08:14:59;17.40;99.90
12761;DHT22;6444;49.742;6.114;2022-09-09T08:17:25;17.30;99.90
12761;DHT22;6444;49.742;6.114;2022-09-09T08:19:52;17.50;99.90
12761;DHT22;6444;49.742;6.114;2022-09-09T08:22:18;17.70;99.90
12761;DHT22;6444;49.742;6.114;2022-09-09T08:24:45;17.90;99.90
12761;DHT22;6444;49.742;6.114;2022-09-09T08:27:12;17.80;99.90
12761;DHT22;6444;49.742;6.114;2022-09-09T08:29:38;18.10;99.90
12761;DHT22;6444;49.742;6.114;2022-09-09T08:32:05;18.40;99.90
12761;DHT22;6444;49.742;6.114;2022-09-09T08:34:32;18.00;99.90
12761;DHT22;6444;49.742;6.114;2022-09-09T08:36:58;17.80;99.90
12761;DHT22;6444;49.742;6.114;2022-09-09T08:39:25;17.70;99.90
12761;DHT22;6444;49.742;6.114;2022-09-09T08:50:21;18.30;99.90
12761;DHT22;6444;49.742;6.114;2022-09-09T08:52:56;18.20;99.90
12761;DHT22;6444;49.742;6.114;2022-09-09T08:58:19;18.90;99.90
12761;DHT22;6444;49.742;6.114;2022-09-09T09:06:30;20.40;99.90
12761;DHT22;6444;49.742;6.114;2022-09-09T09:09:16;19.40;99.90
12761;DHT22;6444;49.742;6.114;2022-09-09T09:11:56;20.10;99.90
12761;DHT22;6444;49.742;6.114;2022-09-09T09:14:24;20.10;99.90
12761;DHT22;6444;49.742;6.114;2022-09-09T09:16:57;19.80;99.90
12761;DHT22;6444;49.742;6.114;2022-09-09T09:19:23;19.30;99.90
12761;DHT22;6444;49.742;6.114;2022-09-09T09:24:42;18.80;99.90
12761;DHT22;6444;49.742;6.114;2022-09-09T09:29:34;19.30;99.90
12761;DHT22;6444;49.742;6.114;2022-09-09T09:32:00;19.30;99.90
12761;DHT22;6444;49.742;6.114;2022-09-09T09:34:27;19.40;99.90
12761;DHT22;6444;49.742;6.114;2022-09-09T09:36:55;19.20;99.90
12761;DHT22;6444;49.742;6.114;2022-09-09T09:39:24;18.90;99.90
12761;DHT22;6444;49.742;6.114;2022-09-09T09:41:50;18.60;99.90
12761;DHT22;6444;49.742;6.114;2022-09-09T09:44:22;18.60;99.90
12761;DHT22;6444;49.742;6.114;2022-09-09T09:46:45;18.40;99.90
12761;DHT22;6444;49.742;6.114;2022-09-09T09:49:12;18.40;99.90
12761;DHT22;6444;49.742;6.114;2022-09-09T09:51:39;18.60;99.90
12761;DHT22;6444;49.742;6.114;2022-09-09T09:54:21;18.90;99.90
12761;DHT22;6444;49.742;6.114;2022-09-09T09:56:45;19.40;99.90
12761;DHT22;6444;49.742;6.114;2022-09-09T09:59:36;19.30;99.90
12761;DHT22;6444;49.742;6.114;2022-09-09T10:02:24;19.90;99.90
12761;DHT22;6444;49.742;6.114;2022-09-09T10:07:40;20.40;99.90
12761;DHT22;6444;49.742;6.114;2022-09-09T10:10:13;20.90;99.90
12761;DHT22;6444;49.742;6.114;2022-09-09T10:12:37;21.30;99.90
12761;DHT22;6444;49.742;6.114;2022-09-09T10:15:29;21.70;99.90
12761;DHT22;6444;49.742;6.114;2022-09-09T10:20:52;19.80;99.90
12761;DHT22;6444;49.742;6.114;2022-09-09T10:25:47;18.50;99.90
12761;DHT22;6444;49.742;6.114;2022-09-09T10:33:28;18.30;99.90
12761;DHT22;6444;49.742;6.114;2022-09-09T10:36:08;18.90;99.90
12761;DHT22;6444;49.742;6.114;2022-09-09T10:38:47;19.90;99.90
12761;DHT22;6444;49.742;6.114;2022-09-09T10:41:17;20.90;99.90
12761;DHT22;6444;49.742;6.114;2022-09-09T10:43:57;21.80;99.90
12761;DHT22;6444;49.742;6.114;2022-09-09T10:46:32;21.10;99.90
12761;DHT22;6444;49.742;6.114;2022-09-09T10:56:58;19.90;99.90
12761;DHT22;6444;49.742;6.114;2022-09-09T10:59:26;20.20;99.90
12761;DHT22;6444;49.742;6.114;2022-09-09T11:01:56;20.50;99.90
12761;DHT22;6444;49.742;6.114;2022-09-09T11:04:29;20.90;99.90
12761;DHT22;6444;49.742;6.114;2022-09-09T11:06:55;20.60;99.90
12761;DHT22;6444;49.742;6.114;2022-09-09T11:09:29;20.10;99.90
12761;DHT22;6444;49.742;6.114;2022-09-09T11:11:53;20.60;99.90
12761;DHT22;6444;49.742;6.114;2022-09-09T11:14:29;20.50;99.90
12761;DHT22;6444;49.742;6.114;2022-09-09T11:17:01;20.70;99.90
12761;DHT22;6444;49.742;6.114;2022-09-09T11:19:42;20.80;99.90
12761;DHT22;6444;49.742;6.114;2022-09-09T11:22:14;21.10;99.90
12761;DHT22;6444;49.742;6.114;2022-09-09T11:24:38;21.00;99.90
12761;DHT22;6444;49.742;6.114;2022-09-09T11:27:14;21.00;99.90
12761;DHT22;6444;49.742;6.114;2022-09-09T11:32:32;21.30;99.90
12761;DHT22;6444;49.742;6.114;2022-09-09T11:37:56;20.80;99.90
12761;DHT22;6444;49.742;6.114;2022-09-09T11:40:26;21.50;99.90
12761;DHT22;6444;49.742;6.114;2022-09-09T11:43:12;22.00;99.90
12761;DHT22;6444;49.742;6.114;2022-09-09T11:45:37;22.40;99.90
12761;DHT22;6444;49.742;6.114;2022-09-09T11:48:04;21.80;99.90
12761;DHT22;6444;49.742;6.114;2022-09-09T11:50:31;21.80;99.90
12761;DHT22;6444;49.742;6.114;2022-09-09T11:53:15;21.50;99.90
12761;DHT22;6444;49.742;6.114;2022-09-09T11:55:34;21.80;99.90
12761;DHT22;6444;49.742;6.114;2022-09-09T12:00:43;21.50;99.90
12761;DHT22;6444;49.742;6.114;2022-09-09T12:03:34;21.30;99.90
12761;DHT22;6444;49.742;6.114;2022-09-09T12:06:00;21.50;99.90
12761;DHT22;6444;49.742;6.114;2022-09-09T12:08:29;21.80;99.90
12761;DHT22;6444;49.742;6.114;2022-09-09T12:10:56;21.40;99.90
12761;DHT22;6444;49.742;6.114;2022-09-09T12:13:24;20.60;99.90
12761;DHT22;6444;49.742;6.114;2022-09-09T12:15:53;20.60;99.90
12761;DHT22;6444;49.742;6.114;2022-09-09T12:20:57;20.60;99.90
12761;DHT22;6444;49.742;6.114;2022-09-09T12:34:18;18.70;99.90
12761;DHT22;6444;49.742;6.114;2022-09-09T12:36:43;19.20;99.90
12761;DHT22;6444;49.742;6.114;2022-09-09T12:39:18;20.10;99.90
12761;DHT22;6444;49.742;6.114;2022-09-09T12:41:50;21.20;99.90
12761;DHT22;6444;49.742;6.114;2022-09-09T12:44:09;21.00;99.90
12761;DHT22;6444;49.742;6.114;2022-09-09T12:46:42;21.90;99.90
12761;DHT22;6444;49.742;6.114;2022-09-09T12:49:27;22.70;99.90
12761;DHT22;6444;49.742;6.114;2022-09-09T12:51:56;22.70;99.90
12761;DHT22;6444;49.742;6.114;2022-09-09T12:54:20;20.50;99.90
12761;DHT22;6444;49.742;6.114;2022-09-09T12:56:47;20.40;99.90
12761;DHT22;6444;49.742;6.114;2022-09-09T12:59:23;19.80;99.90
12761;DHT22;6444;49.742;6.114;2022-09-09T13:01:55;19.60;99.90
12761;DHT22;6444;49.742;6.114;2022-09-09T13:04:21;19.80;99.90
12761;DHT22;6444;49.742;6.114;2022-09-09T13:06:47;20.30;99.90
12761;DHT22;6444;49.742;6.114;2022-09-09T13:09:14;20.60;99.90
12761;DHT22;6444;49.742;6.114;2022-09-09T13:11:45;21.50;99.90
12761;DHT22;6444;49.742;6.114;2022-09-09T13:14:16;22.10;99.90
12761;DHT22;6444;49.742;6.114;2022-09-09T13:16:42;21.10;99.90
12761;DHT22;6444;49.742;6.114;2022-09-09T13:19:18;19.80;99.90
12761;DHT22;6444;49.742;6.114;2022-09-09T13:21:38;19.70;99.90
12761;DHT22;6444;49.742;6.114;2022-09-09T13:24:05;18.20;99.90
12761;DHT22;6444;49.742;6.114;2022-09-09T13:26:31;16.90;99.90
12761;DHT22;6444;49.742;6.114;2022-09-09T13:29:09;16.80;99.90
12761;DHT22;6444;49.742;6.114;2022-09-09T13:31:35;16.90;99.90
12761;DHT22;6444;49.742;6.114;2022-09-09T13:34:11;16.30;99.90
12761;DHT22;6444;49.742;6.114;2022-09-09T13:36:38;16.20;99.90
12761;DHT22;6444;49.742;6.114;2022-09-09T13:39:05;16.10;99.90
12761;DHT22;6444;49.742;6.114;2022-09-09T13:41:35;16.10;99.90
12761;DHT22;6444;49.742;6.114;2022-09-09T13:44:01;16.20;99.90
12761;DHT22;6444;49.742;6.114;2022-09-09T13:46:40;16.10;99.90
12761;DHT22;6444;49.742;6.114;2022-09-09T13:51:42;16.20;99.90
12761;DHT22;6444;49.742;6.114;2022-09-09T13:54:11;16.20;99.90
12761;DHT22;6444;49.742;6.114;2022-09-09T13:56:37;16.20;99.90
12761;DHT22;6444;49.742;6.114;2022-09-09T13:59:04;16.20;99.90
12761;DHT22;6444;49.742;6.114;2022-09-09T14:01:30;16.40;99.90
12761;DHT22;6444;49.742;6.114;2022-09-09T14:03:57;16.50;99.90
12761;DHT22;6444;49.742;6.114;2022-09-09T14:06:23;16.50;99.90
12761;DHT22;6444;49.742;6.114;2022-09-09T14:08:50;16.60;99.90
12761;DHT22;6444;49.742;6.114;2022-09-09T14:11:17;16.50;99.90
12761;DHT22;6444;49.742;6.114;2022-09-09T14:13:43;16.60;99.90
12761;DHT22;6444;49.742;6.114;2022-09-09T14:16:10;16.90;99.90
12761;DHT22;6444;49.742;6.114;2022-09-09T14:18:37;16.90;99.90
12761;DHT22;6444;49.742;6.114;2022-09-09T14:21:03;17.00;99.90
12761;DHT22;6444;49.742;6.114;2022-09-09T14:23:31;17.60;99.90
12761;DHT22;6444;49.742;6.114;2022-09-09T14:25:57;17.50;99.90
12761;DHT22;6444;49.742;6.114;2022-09-09T14:28:24;17.50;99.90
12761;DHT22;6444;49.742;6.114;2022-09-09T14:30:50;17.60;99.90
12761;DHT22;6444;49.742;6.114;2022-09-09T14:33:17;18.10;99.90
12761;DHT22;6444;49.742;6.114;2022-09-09T14:35:44;18.40;99.90
12761;DHT22;6444;49.742;6.114;2022-09-09T14:38:10;18.60;99.90
12761;DHT22;6444;49.742;6.114;2022-09-09T14:40:37;18.90;99.90
12761;DHT22;6444;49.742;6.114;2022-09-09T14:43:04;18.70;99.90
12761;DHT22;6444;49.742;6.114;2022-09-09T14:45:30;18.80;99.90
12761;DHT22;6444;49.742;6.114;2022-09-09T14:47:57;18.80;99.90
12761;DHT22;6444;49.742;6.114;2022-09-09T14:50:23;19.40;99.90
12761;DHT22;6444;49.742;6.114;2022-09-09T14:52:50;19.70;99.90
12761;DHT22;6444;49.742;6.114;2022-09-09T14:55:17;19.40;99.90
12761;DHT22;6444;49.742;6.114;2022-09-09T14:57:44;19.30;99.90
12761;DHT22;6444;49.742;6.114;2022-09-09T15:00:11;19.20;99.90
12761;DHT22;6444;49.742;6.114;2022-09-09T15:02:37;19.30;99.90
12761;DHT22;6444;49.742;6.114;2022-09-09T15:05:05;18.50;99.90
12761;DHT22;6444;49.742;6.114;2022-09-09T15:07:31;18.50;99.90
12761;DHT22;6444;49.742;6.114;2022-09-09T15:09:58;18.00;99.90
12761;DHT22;6444;49.742;6.114;2022-09-09T15:12:25;16.90;99.90
12761;DHT22;6444;49.742;6.114;2022-09-09T15:14:52;16.90;99.90
12761;DHT22;6444;49.742;6.114;2022-09-09T15:17:19;17.00;99.90
12761;DHT22;6444;49.742;6.114;2022-09-09T15:19:45;16.90;99.90
12761;DHT22;6444;49.742;6.114;2022-09-09T15:22:12;16.90;99.90
12761;DHT22;6444;49.742;6.114;2022-09-09T15:24:38;17.00;99.90
12761;DHT22;6444;49.742;6.114;2022-09-09T15:27:05;17.00;99.90
12761;DHT22;6444;49.742;6.114;2022-09-09T15:29:32;16.30;99.90
12761;DHT22;6444;49.742;6.114;2022-09-09T15:31:58;15.70;99.90
12761;DHT22;6444;49.742;6.114;2022-09-09T15:34:25;15.60;99.90
12761;DHT22;6444;49.742;6.114;2022-09-09T15:36:52;15.50;99.90
12761;DHT22;6444;49.742;6.114;2022-09-09T15:39:18;15.70;99.90
12761;DHT22;6444;49.742;6.114;2022-09-09T15:41:45;15.80;99.90
12761;DHT22;6444;49.742;6.114;2022-09-09T15:44:12;15.30;99.90
12761;DHT22;6444;49.742;6.114;2022-09-09T15:46:45;15.20;99.90
12761;DHT22;6444;49.742;6.114;2022-09-09T15:49:12;15.30;99.90
12761;DHT22;6444;49.742;6.114;2022-09-09T15:51:39;15.30;99.90
12761;DHT22;6444;49.742;6.114;2022-09-09T15:54:05;15.80;99.90
12761;DHT22;6444;49.742;6.114;2022-09-09T15:56:32;15.80;99.90
12761;DHT22;6444;49.742;6.114;2022-09-09T15:59:01;15.70;99.90
12761;DHT22;6444;49.742;6.114;2022-09-09T16:01:28;15.70;99.90
12761;DHT22;6444;49.742;6.114;2022-09-09T16:03:54;15.60;99.90
12761;DHT22;6444;49.742;6.114;2022-09-09T16:06:21;15.70;99.90
12761;DHT22;6444;49.742;6.114;2022-09-09T16:08:48;15.80;99.90
12761;DHT22;6444;49.742;6.114;2022-09-09T16:11:15;15.90;99.90
12761;DHT22;6444;49.742;6.114;2022-09-09T16:13:42;16.30;99.90
12761;DHT22;6444;49.742;6.114;2022-09-09T16:16:09;16.30;99.90
12761;DHT22;6444;49.742;6.114;2022-09-09T16:18:42;16.40;99.90
12761;DHT22;6444;49.742;6.114;2022-09-09T16:21:08;16.40;99.90
12761;DHT22;6444;49.742;6.114;2022-09-09T16:23:34;16.50;99.90
12761;DHT22;6444;49.742;6.114;2022-09-09T16:26:01;16.70;99.90
12761;DHT22;6444;49.742;6.114;2022-09-09T16:28:27;16.80;99.90
12761;DHT22;6444;49.742;6.114;2022-09-09T16:30:55;17.30;99.90
12761;DHT22;6444;49.742;6.114;2022-09-09T16:33:21;17.20;99.90
12761;DHT22;6444;49.742;6.114;2022-09-09T16:35:48;17.90;99.90
12761;DHT22;6444;49.742;6.114;2022-09-09T16:38:15;18.10;99.90
12761;DHT22;6444;49.742;6.114;2022-09-09T16:40:42;18.50;99.90
12761;DHT22;6444;49.742;6.114;2022-09-09T16:43:08;18.50;99.90
12761;DHT22;6444;49.742;6.114;2022-09-09T16:45:44;18.20;99.90
12761;DHT22;6444;49.742;6.114;2022-09-09T16:48:10;18.10;99.90
12761;DHT22;6444;49.742;6.114;2022-09-09T16:50:37;17.70;99.90
12761;DHT22;6444;49.742;6.114;2022-09-09T16:53:03;17.80;99.90
12761;DHT22;6444;49.742;6.114;2022-09-09T16:55:30;17.70;99.90
12761;DHT22;6444;49.742;6.114;2022-09-09T16:57:56;17.40;99.90
12761;DHT22;6444;49.742;6.114;2022-09-09T17:00:23;17.20;99.90
12761;DHT22;6444;49.742;6.114;2022-09-09T17:02:50;17.20;99.90
12761;DHT22;6444;49.742;6.114;2022-09-09T17:05:17;17.10;99.90
12761;DHT22;6444;49.742;6.114;2022-09-09T17:07:44;17.10;99.90
12761;DHT22;6444;49.742;6.114;2022-09-09T17:10:10;17.10;99.90
12761;DHT22;6444;49.742;6.114;2022-09-09T17:12:37;17.10;99.90
12761;DHT22;6444;49.742;6.114;2022-09-09T17:15:05;17.50;99.90
12761;DHT22;6444;49.742;6.114;2022-09-09T17:17:31;17.50;99.90
12761;DHT22;6444;49.742;6.114;2022-09-09T17:19:58;17.50;99.90
12761;DHT22;6444;49.742;6.114;2022-09-09T17:22:25;17.20;99.90
12761;DHT22;6444;49.742;6.114;2022-09-09T17:24:51;17.10;99.90
12761;DHT22;6444;49.742;6.114;2022-09-09T17:27:18;17.20;99.90
12761;DHT22;6444;49.742;6.114;2022-09-09T17:29:44;17.30;99.90
12761;DHT22;6444;49.742;6.114;2022-09-09T17:32:11;17.40;99.90
12761;DHT22;6444;49.742;6.114;2022-09-09T17:34:38;17.50;99.90
12761;DHT22;6444;49.742;6.114;2022-09-09T17:37:04;17.50;99.90